sensor_id;sensor_type;location;lat;lon;timestamp;pressure;altitude;pressure_sealevel;temperature;humidity
68366;BME280;55283;51.466;5.478;2023-04-01T00:01:00;99014.56;;;21.03;46.97
68366;BME280;55283;51.466;5.478;2023-04-01T00:03:27;99013.78;;;21.03;47.00
68366;BME280;55283;51.466;5.478;2023-04-01T00:05:53;99011.19;;;20.99;47.11
68366;BME280;55283;51.466;5.478;2023-04-01T00:08:19;99016.31;;;21.01;47.01
68366;BME280;55283;51.466;5.478;2023-04-01T00:10:45;99009.66;;;20.98;46.95
68366;BME280;55283;51.466;5.478;2023-04-01T00:13:11;99008.38;;;20.99;47.03
68366;BME280;55283;51.466;5.478;2023-04-01T00:15:37;99014.28;;;21.01;46.93
68366;BME280;55283;51.466;5.478;2023-04-01T00:18:03;99019.13;;;21.01;46.94
68366;BME280;55283;51.466;5.478;2023-04-01T00:20:29;99021.41;;;21.02;47.00
68366;BME280;55283;51.466;5.478;2023-04-01T00:22:55;99007.84;;;20.95;46.67
68366;BME280;55283;51.466;5.478;2023-04-01T00:25:21;99020.34;;;21.00;47.02
68366;BME280;55283;51.466;5.478;2023-04-01T00:27:46;99018.81;;;20.99;46.90
68366;BME280;55283;51.466;5.478;2023-04-01T00:30:12;99015.47;;;20.95;46.80
68366;BME280;55283;51.466;5.478;2023-04-01T00:32:38;99022.69;;;21.01;47.01
68366;BME280;55283;51.466;5.478;2023-04-01T00:35:04;99020.34;;;21.00;47.01
68366;BME280;55283;51.466;5.478;2023-04-01T00:37:30;99020.28;;;20.94;46.96
68366;BME280;55283;51.466;5.478;2023-04-01T00:39:56;99018.06;;;20.98;47.13
68366;BME280;55283;51.466;5.478;2023-04-01T00:42:22;99027.72;;;20.97;47.00
68366;BME280;55283;51.466;5.478;2023-04-01T00:44:51;99030.25;;;20.95;46.99
68366;BME280;55283;51.466;5.478;2023-04-01T00:47:17;99030.50;;;20.97;47.00
68366;BME280;55283;51.466;5.478;2023-04-01T00:49:46;99024.63;;;20.95;47.10
68366;BME280;55283;51.466;5.478;2023-04-01T00:52:15;99039.69;;;20.98;47.22
68366;BME280;55283;51.466;5.478;2023-04-01T00:54:45;99037.66;;;20.98;46.98
68366;BME280;55283;51.466;5.478;2023-04-01T00:57:26;99028.41;;;20.92;47.08
68366;BME280;55283;51.466;5.478;2023-04-01T00:59:54;99030.16;;;20.90;46.88
68366;BME280;55283;51.466;5.478;2023-04-01T01:02:21;99036.81;;;20.92;47.27
68366;BME280;55283;51.466;5.478;2023-04-01T01:04:47;99047.22;;;20.92;47.14
68366;BME280;55283;51.466;5.478;2023-04-01T01:12:45;99043.59;;;20.86;47.05
68366;BME280;55283;51.466;5.478;2023-04-01T01:22:55;99050.53;;;20.90;47.05
68366;BME280;55283;51.466;5.478;2023-04-01T01:33:35;99047.94;;;20.87;47.32
68366;BME280;55283;51.466;5.478;2023-04-01T01:36:06;99058.38;;;20.86;47.44
68366;BME280;55283;51.466;5.478;2023-04-01T01:38:34;99058.66;;;20.88;47.17
68366;BME280;55283;51.466;5.478;2023-04-01T01:41:01;99054.31;;;20.87;47.20
68366;BME280;55283;51.466;5.478;2023-04-01T01:43:35;99054.31;;;20.87;47.17
68366;BME280;55283;51.466;5.478;2023-04-01T01:46:07;99072.09;;;20.84;47.44
68366;BME280;55283;51.466;5.478;2023-04-01T01:48:36;99069.84;;;20.88;47.15
68366;BME280;55283;51.466;5.478;2023-04-01T01:51:05;99070.34;;;20.87;47.15
68366;BME280;55283;51.466;5.478;2023-04-01T01:53:30;99077.19;;;20.86;47.26
68366;BME280;55283;51.466;5.478;2023-04-01T01:55:56;99077.19;;;20.86;47.17
68366;BME280;55283;51.466;5.478;2023-04-01T01:58:30;99075.88;;;20.81;47.05
68366;BME280;55283;51.466;5.478;2023-04-01T02:00:59;99084.44;;;20.92;47.00
68366;BME280;55283;51.466;5.478;2023-04-01T02:03:29;99085.41;;;20.89;47.21
68366;BME280;55283;51.466;5.478;2023-04-01T02:05:57;99077.69;;;20.84;47.21
68366;BME280;55283;51.466;5.478;2023-04-01T02:08:43;99090.50;;;20.91;47.22
68366;BME280;55283;51.466;5.478;2023-04-01T02:11:13;99083.00;;;20.82;47.13
68366;BME280;55283;51.466;5.478;2023-04-01T02:13:52;99088.97;;;20.90;47.07
68366;BME280;55283;51.466;5.478;2023-04-01T02:16:28;99086.88;;;20.85;47.23
68366;BME280;55283;51.466;5.478;2023-04-01T02:18:57;99095.06;;;20.88;47.23
68366;BME280;55283;51.466;5.478;2023-04-01T02:21:27;99095.34;;;20.90;47.22
68366;BME280;55283;51.466;5.478;2023-04-01T02:23:56;99097.84;;;20.88;47.22
68366;BME280;55283;51.466;5.478;2023-04-01T02:26:23;99107.31;;;20.91;47.08
68366;BME280;55283;51.466;5.478;2023-04-01T02:28:52;99104.03;;;20.92;46.91
68366;BME280;55283;51.466;5.478;2023-04-01T02:31:18;99084.34;;;20.87;47.12
68366;BME280;55283;51.466;5.478;2023-04-01T02:33:44;99086.09;;;20.84;47.10
68366;BME280;55283;51.466;5.478;2023-04-01T02:36:12;99100.38;;;20.86;47.08
68366;BME280;55283;51.466;5.478;2023-04-01T02:38:38;99103.97;;;20.87;47.01
68366;BME280;55283;51.466;5.478;2023-04-01T02:41:06;99092.28;;;20.73;47.31
68366;BME280;55283;51.466;5.478;2023-04-01T02:43:32;99094.69;;;20.80;47.27
68366;BME280;55283;51.466;5.478;2023-04-01T02:45:57;99107.22;;;20.85;47.21
68366;BME280;55283;51.466;5.478;2023-04-01T02:48:23;99101.84;;;20.82;47.21
68366;BME280;55283;51.466;5.478;2023-04-01T02:50:48;99102.13;;;20.84;47.13
68366;BME280;55283;51.466;5.478;2023-04-01T02:53:15;99108.41;;;20.78;47.27
68366;BME280;55283;51.466;5.478;2023-04-01T02:55:41;99112.84;;;20.85;47.25
68366;BME280;55283;51.466;5.478;2023-04-01T02:58:07;99107.22;;;20.85;47.16
68366;BME280;55283;51.466;5.478;2023-04-01T03:00:32;99114.09;;;20.84;47.18
68366;BME280;55283;51.466;5.478;2023-04-01T03:02:58;99104.53;;;20.76;47.29
68366;BME280;55283;51.466;5.478;2023-04-01T03:05:24;99114.88;;;20.85;47.13
68366;BME280;55283;51.466;5.478;2023-04-01T03:07:49;99118.94;;;20.84;47.18
68366;BME280;55283;51.466;5.478;2023-04-01T03:10:15;99111.00;;;20.82;47.17
68366;BME280;55283;51.466;5.478;2023-04-01T03:12:40;99114.56;;;20.83;47.28
68366;BME280;55283;51.466;5.478;2023-04-01T03:15:06;99124.53;;;20.84;47.22
68366;BME280;55283;51.466;5.478;2023-04-01T03:17:32;99119.59;;;20.78;47.16
68366;BME280;55283;51.466;5.478;2023-04-01T03:19:57;99117.09;;;20.80;47.05
68366;BME280;55283;51.466;5.478;2023-04-01T03:22:23;99133.41;;;20.82;47.07
68366;BME280;55283;51.466;5.478;2023-04-01T03:24:49;99135.44;;;20.82;47.17
68366;BME280;55283;51.466;5.478;2023-04-01T03:27:14;99130.41;;;20.86;47.21
68366;BME280;55283;51.466;5.478;2023-04-01T03:29:40;99139.59;;;20.86;47.09
68366;BME280;55283;51.466;5.478;2023-04-01T03:32:05;99144.41;;;20.86;47.18
68366;BME280;55283;51.466;5.478;2023-04-01T03:34:31;99140.84;;;20.85;47.18
68366;BME280;55283;51.466;5.478;2023-04-01T03:36:57;99143.06;;;20.81;47.26
68366;BME280;55283;51.466;5.478;2023-04-01T03:39:23;99143.84;;;20.82;46.96
68366;BME280;55283;51.466;5.478;2023-04-01T03:41:48;99149.91;;;20.80;47.12
68366;BME280;55283;51.466;5.478;2023-04-01T03:44:14;99136.41;;;20.78;47.07
68366;BME280;55283;51.466;5.478;2023-04-01T03:46:40;99129.44;;;20.74;47.28
68366;BME280;55283;51.466;5.478;2023-04-01T03:49:09;99143.75;;;20.76;47.32
68366;BME280;55283;51.466;5.478;2023-04-01T03:51:41;99147.13;;;20.80;47.36
68366;BME280;55283;51.466;5.478;2023-04-01T03:54:08;99149.66;;;20.78;47.22
68366;BME280;55283;51.466;5.478;2023-04-01T03:56:33;99152.72;;;20.80;47.22
68366;BME280;55283;51.466;5.478;2023-04-01T03:59:02;99148.09;;;20.77;47.03
68366;BME280;55283;51.466;5.478;2023-04-01T04:01:28;99149.44;;;20.82;47.14
68366;BME280;55283;51.466;5.478;2023-04-01T04:03:53;99153.78;;;20.83;47.20
68366;BME280;55283;51.466;5.478;2023-04-01T04:06:19;99156.31;;;20.80;47.29
68366;BME280;55283;51.466;5.478;2023-04-01T04:08:44;99153.50;;;20.80;47.15
68366;BME280;55283;51.466;5.478;2023-04-01T04:11:10;99159.59;;;20.79;47.25
68366;BME280;55283;51.466;5.478;2023-04-01T04:13:36;99145.47;;;20.73;47.33
68366;BME280;55283;51.466;5.478;2023-04-01T04:16:02;99161.63;;;20.78;47.21
68366;BME280;55283;51.466;5.478;2023-04-01T04:18:28;99159.28;;;20.77;47.09
68366;BME280;55283;51.466;5.478;2023-04-01T04:20:53;99176.88;;;20.77;47.17
68366;BME280;55283;51.466;5.478;2023-04-01T04:23:19;99166.81;;;20.71;47.24
68366;BME280;55283;51.466;5.478;2023-04-01T04:25:59;99171.75;;;20.76;47.21
68366;BME280;55283;51.466;5.478;2023-04-01T04:28:25;99170.22;;;20.75;47.34
68366;BME280;55283;51.466;5.478;2023-04-01T04:30:51;99178.88;;;20.77;47.18
68366;BME280;55283;51.466;5.478;2023-04-01T04:33:17;99168.38;;;20.72;47.53
68366;BME280;55283;51.466;5.478;2023-04-01T04:35:42;99179.69;;;20.77;47.17
68366;BME280;55283;51.466;5.478;2023-04-01T04:38:08;99180.91;;;20.76;47.17
68366;BME280;55283;51.466;5.478;2023-04-01T04:40:36;99186.81;;;20.78;47.16
68366;BME280;55283;51.466;5.478;2023-04-01T04:43:01;99191.91;;;20.80;47.08
68366;BME280;55283;51.466;5.478;2023-04-01T04:45:27;99194.91;;;20.76;47.01
68366;BME280;55283;51.466;5.478;2023-04-01T04:47:52;99200.81;;;20.78;47.16
68366;BME280;55283;51.466;5.478;2023-04-01T04:50:17;99191.56;;;20.72;47.27
68366;BME280;55283;51.466;5.478;2023-04-01T04:52:43;99204.09;;;20.77;47.28
68366;BME280;55283;51.466;5.478;2023-04-01T04:55:08;99195.13;;;20.73;47.17
68366;BME280;55283;51.466;5.478;2023-04-01T04:57:33;99207.38;;;20.75;47.25
68366;BME280;55283;51.466;5.478;2023-04-01T04:59:59;99191.25;;;20.70;47.19
68366;BME280;55283;51.466;5.478;2023-04-01T05:02:24;99208.44;;;20.78;47.21
68366;BME280;55283;51.466;5.478;2023-04-01T05:04:50;99206.41;;;20.78;47.36
68366;BME280;55283;51.466;5.478;2023-04-01T05:07:15;99212.03;;;20.78;47.21
68366;BME280;55283;51.466;5.478;2023-04-01T05:09:40;99210.09;;;20.70;47.14
68366;BME280;55283;51.466;5.478;2023-04-01T05:12:06;99213.19;;;20.72;47.17
68366;BME280;55283;51.466;5.478;2023-04-01T05:14:31;99221.59;;;20.72;47.25
68366;BME280;55283;51.466;5.478;2023-04-01T05:16:57;99223.41;;;20.75;47.26
68366;BME280;55283;51.466;5.478;2023-04-01T05:19:22;99232.88;;;20.77;47.14
68366;BME280;55283;51.466;5.478;2023-04-01T05:21:47;99236.72;;;20.80;47.08
68366;BME280;55283;51.466;5.478;2023-04-01T05:24:13;99233.84;;;20.74;47.12
68366;BME280;55283;51.466;5.478;2023-04-01T05:26:38;99232.19;;;20.68;47.21
68366;BME280;55283;51.466;5.478;2023-04-01T05:29:04;99238.97;;;20.76;47.32
68366;BME280;55283;51.466;5.478;2023-04-01T05:31:30;99249.19;;;20.79;47.39
68366;BME280;55283;51.466;5.478;2023-04-01T05:33:55;99246.97;;;20.68;47.54
68366;BME280;55283;51.466;5.478;2023-04-01T05:36:21;99248.78;;;20.71;47.79
68366;BME280;55283;51.466;5.478;2023-04-01T05:38:46;99248.31;;;20.73;47.52
68366;BME280;55283;51.466;5.478;2023-04-01T05:41:13;99260.78;;;20.72;48.04
68366;BME280;55283;51.466;5.478;2023-04-01T05:43:40;99258.66;;;20.67;48.20
68366;BME280;55283;51.466;5.478;2023-04-01T05:46:05;99262.22;;;20.67;48.23
68366;BME280;55283;51.466;5.478;2023-04-01T05:48:33;99269.84;;;20.67;48.35
68366;BME280;55283;51.466;5.478;2023-04-01T05:50:59;99282.13;;;20.69;48.65
68366;BME280;55283;51.466;5.478;2023-04-01T05:53:24;99281.94;;;20.73;48.50
68366;BME280;55283;51.466;5.478;2023-04-01T05:55:50;99277.31;;;20.85;48.20
68366;BME280;55283;51.466;5.478;2023-04-01T05:58:15;99281.47;;;20.89;47.89
68366;BME280;55283;51.466;5.478;2023-04-01T06:00:41;99280.88;;;20.85;48.19
68366;BME280;55283;51.466;5.478;2023-04-01T06:03:06;99288.28;;;20.73;48.53
68366;BME280;55283;51.466;5.478;2023-04-01T06:05:41;99294.31;;;20.81;48.91
68366;BME280;55283;51.466;5.478;2023-04-01T06:08:17;99297.22;;;20.87;48.58
68366;BME280;55283;51.466;5.478;2023-04-01T06:23:09;99324.22;;;20.75;48.38
68366;BME280;55283;51.466;5.478;2023-04-01T06:34:34;99339.19;;;20.72;49.27
68366;BME280;55283;51.466;5.478;2023-04-01T06:39:58;99346.72;;;20.66;49.52
68366;BME280;55283;51.466;5.478;2023-04-01T06:42:58;99350.84;;;20.70;49.78
68366;BME280;55283;51.466;5.478;2023-04-01T06:48:19;99361.28;;;20.70;49.47
68366;BME280;55283;51.466;5.478;2023-04-01T06:52:08;99353.06;;;20.66;49.56
68366;BME280;55283;51.466;5.478;2023-04-01T06:54:30;99359.13;;;20.65;49.66
68366;BME280;55283;51.466;5.478;2023-04-01T06:57:05;99355.88;;;20.66;49.96
68366;BME280;55283;51.466;5.478;2023-04-01T06:59:36;99362.91;;;20.62;49.73
68366;BME280;55283;51.466;5.478;2023-04-01T07:02:29;99383.09;;;20.66;49.81
68366;BME280;55283;51.466;5.478;2023-04-01T07:04:58;99368.69;;;20.58;50.00
68366;BME280;55283;51.466;5.478;2023-04-01T07:07:41;99384.03;;;20.63;50.11
68366;BME280;55283;51.466;5.478;2023-04-01T07:10:21;99372.06;;;20.62;49.86
68366;BME280;55283;51.466;5.478;2023-04-01T07:12:50;99391.97;;;20.64;50.00
68366;BME280;55283;51.466;5.478;2023-04-01T07:15:23;99383.09;;;20.66;49.82
68366;BME280;55283;51.466;5.478;2023-04-01T07:18:00;99386.06;;;20.62;49.81
68366;BME280;55283;51.466;5.478;2023-04-01T07:20:31;99390.91;;;20.62;49.63
68366;BME280;55283;51.466;5.478;2023-04-01T07:23:32;99397.09;;;20.66;49.54
68366;BME280;55283;51.466;5.478;2023-04-01T07:26:22;99395.22;;;20.63;49.67
68366;BME280;55283;51.466;5.478;2023-04-01T07:28:48;99394.47;;;20.62;49.55
68366;BME280;55283;51.466;5.478;2023-04-01T07:31:25;99411.09;;;20.66;49.65
68366;BME280;55283;51.466;5.478;2023-04-01T07:42:01;99426.75;;;20.72;49.60
68366;BME280;55283;51.466;5.478;2023-04-01T07:50:22;99437.19;;;20.72;49.52
68366;BME280;55283;51.466;5.478;2023-04-01T07:53:19;99431.28;;;20.70;49.62
68366;BME280;55283;51.466;5.478;2023-04-01T07:58:51;99442.94;;;20.68;49.53
68366;BME280;55283;51.466;5.478;2023-04-01T08:07:16;99459.22;;;20.79;49.40
68366;BME280;55283;51.466;5.478;2023-04-01T08:12:42;99467.56;;;20.64;49.91
68366;BME280;55283;51.466;5.478;2023-04-01T08:15:22;99480.16;;;20.69;49.71
68366;BME280;55283;51.466;5.478;2023-04-01T08:18:20;99493.78;;;20.76;49.69
68366;BME280;55283;51.466;5.478;2023-04-01T08:23:33;99482.00;;;20.72;49.68
68366;BME280;55283;51.466;5.478;2023-04-01T08:26:08;99480.81;;;20.64;49.79
68366;BME280;55283;51.466;5.478;2023-04-01T08:28:44;99496.94;;;20.69;49.87
68366;BME280;55283;51.466;5.478;2023-04-01T08:31:31;99499.75;;;20.69;49.73
68366;BME280;55283;51.466;5.478;2023-04-01T08:34:00;99496.28;;;20.74;49.91
68366;BME280;55283;51.466;5.478;2023-04-01T08:36:36;99497.91;;;20.66;49.27
68366;BME280;55283;51.466;5.478;2023-04-01T08:39:24;99503.25;;;20.54;48.48
68366;BME280;55283;51.466;5.478;2023-04-01T08:42:00;99502.75;;;20.56;46.68
68366;BME280;55283;51.466;5.478;2023-04-01T08:56:34;99531.94;;;20.22;44.26
68366;BME280;55283;51.466;5.478;2023-04-01T09:04:13;99543.66;;;20.11;44.21
68366;BME280;55283;51.466;5.478;2023-04-01T09:12:26;99556.53;;;20.08;43.45
68366;BME280;55283;51.466;5.478;2023-04-01T09:26:22;99559.03;;;20.06;42.93
68366;BME280;55283;51.466;5.478;2023-04-01T09:51:26;99590.53;;;20.34;45.12
68366;BME280;55283;51.466;5.478;2023-04-01T10:47:24;99638.72;;;20.39;47.36
68366;BME280;55283;51.466;5.478;2023-04-01T10:55:54;99655.38;;;20.42;47.29
68366;BME280;55283;51.466;5.478;2023-04-01T11:07:42;99658.03;;;20.46;47.12
68366;BME280;55283;51.466;5.478;2023-04-01T11:23:50;99684.28;;;20.57;46.78
68366;BME280;55283;51.466;5.478;2023-04-01T11:26:33;99690.50;;;20.52;47.01
68366;BME280;55283;51.466;5.478;2023-04-01T11:32:02;99687.22;;;20.54;46.84
68366;BME280;55283;51.466;5.478;2023-04-01T11:34:37;99689.72;;;20.61;46.67
68366;BME280;55283;51.466;5.478;2023-04-01T11:40:20;99701.38;;;20.69;46.48
68366;BME280;55283;51.466;5.478;2023-04-01T11:43:08;99701.19;;;20.72;46.43
68366;BME280;55283;51.466;5.478;2023-04-01T11:45:46;99707.13;;;20.74;46.21
68366;BME280;55283;51.466;5.478;2023-04-01T11:58:51;99710.06;;;20.71;46.64
68366;BME280;55283;51.466;5.478;2023-04-01T12:01:33;99716.75;;;20.73;46.70
68366;BME280;55283;51.466;5.478;2023-04-01T12:12:39;99734.31;;;20.83;46.84
68366;BME280;55283;51.466;5.478;2023-04-01T12:15:30;99742.25;;;20.85;46.82
68366;BME280;55283;51.466;5.478;2023-04-01T12:20:51;99744.59;;;20.86;46.90
68366;BME280;55283;51.466;5.478;2023-04-01T12:31:32;99757.00;;;20.85;46.99
68366;BME280;55283;51.466;5.478;2023-04-01T12:34:33;99754.03;;;20.89;46.79
68366;BME280;55283;51.466;5.478;2023-04-01T12:39:51;99763.53;;;20.91;46.65
68366;BME280;55283;51.466;5.478;2023-04-01T12:54:02;99765.75;;;20.78;46.71
68366;BME280;55283;51.466;5.478;2023-04-01T12:56:28;99779.59;;;20.72;46.98
68366;BME280;55283;51.466;5.478;2023-04-01T13:07:57;99787.69;;;20.70;47.30
68366;BME280;55283;51.466;5.478;2023-04-01T13:13:39;99796.84;;;20.80;47.71
68366;BME280;55283;51.466;5.478;2023-04-01T13:16:16;99803.09;;;20.84;47.69
68366;BME280;55283;51.466;5.478;2023-04-01T13:19:09;99792.50;;;20.88;47.64
68366;BME280;55283;51.466;5.478;2023-04-01T13:21:50;99794.38;;;20.82;47.71
68366;BME280;55283;51.466;5.478;2023-04-01T13:29:25;99820.66;;;20.94;47.65
68366;BME280;55283;51.466;5.478;2023-04-01T13:32:05;99823.44;;;20.94;47.71
68366;BME280;55283;51.466;5.478;2023-04-01T13:42:28;99821.28;;;20.89;47.84
68366;BME280;55283;51.466;5.478;2023-04-01T13:56:56;99836.38;;;20.91;48.07
68366;BME280;55283;51.466;5.478;2023-04-01T14:10:06;99850.69;;;21.02;47.78
68366;BME280;55283;51.466;5.478;2023-04-01T14:13:12;99854.25;;;20.94;47.91
68366;BME280;55283;51.466;5.478;2023-04-01T14:19:08;99860.50;;;20.89;47.89
68366;BME280;55283;51.466;5.478;2023-04-01T14:21:41;99872.78;;;20.91;48.05
68366;BME280;55283;51.466;5.478;2023-04-01T14:27:25;99867.19;;;20.91;47.92
68366;BME280;55283;51.466;5.478;2023-04-01T14:35:19;99870.63;;;20.95;47.36
68366;BME280;55283;51.466;5.478;2023-04-01T14:40:52;99889.28;;;21.08;47.28
68366;BME280;55283;51.466;5.478;2023-04-01T14:48:58;99895.50;;;21.12;47.01
68366;BME280;55283;51.466;5.478;2023-04-01T14:53:59;99903.13;;;21.11;47.20
68366;BME280;55283;51.466;5.478;2023-04-01T14:56:36;99886.94;;;21.06;47.12
68366;BME280;55283;51.466;5.478;2023-04-01T14:59:09;99907.03;;;21.05;46.78
68366;BME280;55283;51.466;5.478;2023-04-01T15:01:46;99895.84;;;20.95;46.92
68366;BME280;55283;51.466;5.478;2023-04-01T15:07:59;99909.22;;;20.73;47.06
68366;BME280;55283;51.466;5.478;2023-04-01T15:27:48;99937.47;;;20.56;46.90
68366;BME280;55283;51.466;5.478;2023-04-01T15:30:27;99944.19;;;20.68;46.80
68366;BME280;55283;51.466;5.478;2023-04-01T15:43:57;99941.28;;;20.81;47.64
68366;BME280;55283;51.466;5.478;2023-04-01T15:49:33;99955.44;;;20.77;48.00
68366;BME280;55283;51.466;5.478;2023-04-01T15:52:05;99961.66;;;20.82;48.11
68366;BME280;55283;51.466;5.478;2023-04-01T16:05:26;99963.38;;;20.88;47.62
68366;BME280;55283;51.466;5.478;2023-04-01T16:13:32;99967.09;;;20.94;47.70
68366;BME280;55283;51.466;5.478;2023-04-01T16:16:10;99981.75;;;20.98;47.83
68366;BME280;55283;51.466;5.478;2023-04-01T16:21:35;99985.16;;;20.93;47.79
68366;BME280;55283;51.466;5.478;2023-04-01T16:26:50;99991.38;;;20.97;47.82
68366;BME280;55283;51.466;5.478;2023-04-01T16:29:46;99993.56;;;21.02;47.78
68366;BME280;55283;51.466;5.478;2023-04-01T16:40:36;100003.84;;;21.06;47.70
68366;BME280;55283;51.466;5.478;2023-04-01T16:48:59;99998.25;;;21.06;47.51
68366;BME280;55283;51.466;5.478;2023-04-01T17:00:02;100017.06;;;20.96;48.12
68366;BME280;55283;51.466;5.478;2023-04-01T17:02:30;100025.00;;;20.97;47.87
68366;BME280;55283;51.466;5.478;2023-04-01T17:05:04;100026.41;;;21.02;47.92
68366;BME280;55283;51.466;5.478;2023-04-01T17:08:08;100022.69;;;20.96;47.59
68366;BME280;55283;51.466;5.478;2023-04-01T17:10:46;100022.34;;;20.94;47.92
68366;BME280;55283;51.466;5.478;2023-04-01T17:15:51;100041.97;;;21.03;47.78
68366;BME280;55283;51.466;5.478;2023-04-01T17:26:55;100057.69;;;20.91;48.15
68366;BME280;55283;51.466;5.478;2023-04-01T17:29:55;100049.91;;;20.86;48.21
68366;BME280;55283;51.466;5.478;2023-04-01T17:38:34;100082.47;;;21.02;47.85
68366;BME280;55283;51.466;5.478;2023-04-01T17:41:25;100070.00;;;20.94;47.92
68366;BME280;55283;51.466;5.478;2023-04-01T17:54:46;100094.09;;;20.91;48.20
68366;BME280;55283;51.466;5.478;2023-04-01T18:16:26;100155.50;;;21.08;47.88
68366;BME280;55283;51.466;5.478;2023-04-01T18:29:53;100189.44;;;21.10;47.90
68366;BME280;55283;51.466;5.478;2023-04-01T18:32:27;100203.91;;;21.08;47.82
68366;BME280;55283;51.466;5.478;2023-04-01T18:40:35;100209.19;;;21.06;47.98
68366;BME280;55283;51.466;5.478;2023-04-01T18:46:00;100225.53;;;21.08;48.12
68366;BME280;55283;51.466;5.478;2023-04-01T18:51:41;100240.34;;;21.08;47.87
68366;BME280;55283;51.466;5.478;2023-04-01T18:54:19;100240.81;;;21.07;47.79
68366;BME280;55283;51.466;5.478;2023-04-01T18:56:48;100252.03;;;21.07;48.11
68366;BME280;55283;51.466;5.478;2023-04-01T18:59:27;100267.91;;;21.10;48.04
68366;BME280;55283;51.466;5.478;2023-04-01T19:02:24;100278.31;;;21.09;48.02
68366;BME280;55283;51.466;5.478;2023-04-01T19:10:14;100286.88;;;21.06;48.03
68366;BME280;55283;51.466;5.478;2023-04-01T19:12:48;100303.38;;;21.03;48.05
68366;BME280;55283;51.466;5.478;2023-04-01T19:23:45;100316.94;;;20.83;48.24
68366;BME280;55283;51.466;5.478;2023-04-01T19:34:42;100342.47;;;21.07;47.83
68366;BME280;55283;51.466;5.478;2023-04-01T19:37:33;100349.97;;;21.10;47.88
68366;BME280;55283;51.466;5.478;2023-04-01T19:43:17;100351.06;;;21.13;47.85
68366;BME280;55283;51.466;5.478;2023-04-01T19:46:32;100366.22;;;21.15;47.73
68366;BME280;55283;51.466;5.478;2023-04-01T19:49:12;100370.34;;;21.11;47.93
68366;BME280;55283;51.466;5.478;2023-04-01T19:55:10;100384.69;;;21.13;48.18
68366;BME280;55283;51.466;5.478;2023-04-01T19:57:47;100386.84;;;21.09;48.17
68366;BME280;55283;51.466;5.478;2023-04-01T20:00:43;100391.66;;;21.08;48.16
68366;BME280;55283;51.466;5.478;2023-04-01T20:11:32;100412.06;;;21.09;48.15
68366;BME280;55283;51.466;5.478;2023-04-01T20:17:18;100438.88;;;21.10;48.18
68366;BME280;55283;51.466;5.478;2023-04-01T20:19:55;100444.47;;;21.10;48.27
68366;BME280;55283;51.466;5.478;2023-04-01T20:24:52;100451.28;;;21.09;47.95
68366;BME280;55283;51.466;5.478;2023-04-01T20:27:24;100438.31;;;21.02;48.06
68366;BME280;55283;51.466;5.478;2023-04-01T20:35:39;100461.53;;;21.02;48.07
68366;BME280;55283;51.466;5.478;2023-04-01T20:41:10;100481.69;;;21.10;48.33
68366;BME280;55283;51.466;5.478;2023-04-01T20:43:52;100492.91;;;21.10;48.33
68366;BME280;55283;51.466;5.478;2023-04-01T20:46:48;100497.25;;;21.11;48.36
68366;BME280;55283;51.466;5.478;2023-04-01T20:49:30;100501.75;;;21.09;48.23
68366;BME280;55283;51.466;5.478;2023-04-01T20:52:04;100509.72;;;21.10;48.42
68366;BME280;55283;51.466;5.478;2023-04-01T20:54:58;100513.28;;;21.11;48.24
68366;BME280;55283;51.466;5.478;2023-04-01T20:57:45;100514.19;;;21.08;48.03
68366;BME280;55283;51.466;5.478;2023-04-01T21:03:49;100525.06;;;21.06;48.11
68366;BME280;55283;51.466;5.478;2023-04-01T21:09:16;100539.22;;;21.02;48.08
68366;BME280;55283;51.466;5.478;2023-04-01T21:20:18;100554.25;;;20.95;48.13
68366;BME280;55283;51.466;5.478;2023-04-01T21:31:41;100589.69;;;20.89;48.27
68366;BME280;55283;51.466;5.478;2023-04-01T21:49:09;100628.09;;;20.89;48.08
68366;BME280;55283;51.466;5.478;2023-04-01T21:52:29;100626.53;;;20.88;48.00
68366;BME280;55283;51.466;5.478;2023-04-01T22:08:17;100659.03;;;20.85;47.83
68366;BME280;55283;51.466;5.478;2023-04-01T22:13:33;100672.94;;;20.89;47.58
68366;BME280;55283;51.466;5.478;2023-04-01T22:22:02;100681.13;;;20.83;48.06
68366;BME280;55283;51.466;5.478;2023-04-01T22:27:38;100696.25;;;20.86;47.73
68366;BME280;55283;51.466;5.478;2023-04-01T22:32:44;100697.84;;;20.87;47.70
68366;BME280;55283;51.466;5.478;2023-04-01T22:41:01;100711.06;;;20.86;47.78
68366;BME280;55283;51.466;5.478;2023-04-01T22:43:41;100709.16;;;20.83;47.79
68366;BME280;55283;51.466;5.478;2023-04-01T22:46:39;100721.13;;;20.84;47.77
68366;BME280;55283;51.466;5.478;2023-04-01T22:49:41;100714.28;;;20.72;47.79
68366;BME280;55283;51.466;5.478;2023-04-01T23:00:04;100734.69;;;20.72;47.71
68366;BME280;55283;51.466;5.478;2023-04-01T23:02:38;100750.06;;;20.80;47.66
68366;BME280;55283;51.466;5.478;2023-04-01T23:05:05;100753.63;;;20.81;47.71
68366;BME280;55283;51.466;5.478;2023-04-01T23:10:39;100766.06;;;20.80;47.79
68366;BME280;55283;51.466;5.478;2023-04-01T23:13:04;100768.84;;;20.80;47.71
68366;BME280;55283;51.466;5.478;2023-04-01T23:15:34;100774.47;;;20.80;47.58
68366;BME280;55283;51.466;5.478;2023-04-01T23:21:25;100783.75;;;20.77;47.64
68366;BME280;55283;51.466;5.478;2023-04-01T23:24:03;100787.25;;;20.81;47.65
68366;BME280;55283;51.466;5.478;2023-04-01T23:26:43;100799.34;;;20.78;47.60
68366;BME280;55283;51.466;5.478;2023-04-01T23:29:15;100794.06;;;20.80;47.58
68366;BME280;55283;51.466;5.478;2023-04-01T23:31:43;100802.03;;;20.82;47.70
68366;BME280;55283;51.466;5.478;2023-04-01T23:36:44;100816.16;;;20.78;47.64
68366;BME280;55283;51.466;5.478;2023-04-01T23:39:20;100821.41;;;20.76;47.67
68366;BME280;55283;51.466;5.478;2023-04-01T23:41:48;100825.09;;;20.73;47.96
68366;BME280;55283;51.466;5.478;2023-04-01T23:44:14;100826.34;;;20.72;47.75
68366;BME280;55283;51.466;5.478;2023-04-01T23:46:42;100831.06;;;20.75;47.67
68366;BME280;55283;51.466;5.478;2023-04-01T23:49:22;100835.06;;;20.74;47.90
68366;BME280;55283;51.466;5.478;2023-04-01T23:51:52;100835.63;;;20.69;47.74